sensor_id;sensor_type;location;lat;lon;timestamp;P1;durP1;ratioP1;P2;durP2;ratioP2
64789;SDS011;51223;51.816;5.862;2023-02-28T00:00:22;2.50;;;1.92;;
64789;SDS011;51223;51.816;5.862;2023-02-28T00:02:48;4.82;;;2.40;;
64789;SDS011;51223;51.816;5.862;2023-02-28T00:05:15;2.45;;;1.83;;
64789;SDS011;51223;51.816;5.862;2023-02-28T00:07:42;2.10;;;1.48;;
64789;SDS011;51223;51.816;5.862;2023-02-28T00:10:09;2.72;;;1.60;;
64789;SDS011;51223;51.816;5.862;2023-02-28T00:12:35;2.17;;;1.50;;
64789;SDS011;51223;51.816;5.862;2023-02-28T00:15:01;3.25;;;2.10;;
64789;SDS011;51223;51.816;5.862;2023-02-28T00:17:26;2.45;;;1.92;;
64789;SDS011;51223;51.816;5.862;2023-02-28T00:19:52;0.65;;;0.65;;
64789;SDS011;51223;51.816;5.862;2023-02-28T00:22:18;1.80;;;1.50;;
64789;SDS011;51223;51.816;5.862;2023-02-28T00:24:44;0.55;;;0.52;;
64789;SDS011;51223;51.816;5.862;2023-02-28T00:27:10;2.33;;;1.95;;
64789;SDS011;51223;51.816;5.862;2023-02-28T00:29:36;4.22;;;2.30;;
64789;SDS011;51223;51.816;5.862;2023-02-28T00:32:02;1.67;;;1.40;;
64789;SDS011;51223;51.816;5.862;2023-02-28T00:34:28;1.15;;;1.00;;
64789;SDS011;51223;51.816;5.862;2023-02-28T00:36:54;2.65;;;1.20;;
64789;SDS011;51223;51.816;5.862;2023-02-28T00:39:19;0.82;;;0.80;;
64789;SDS011;51223;51.816;5.862;2023-02-28T00:41:45;2.80;;;1.75;;
64789;SDS011;51223;51.816;5.862;2023-02-28T00:44:10;0.32;;;0.32;;
64789;SDS011;51223;51.816;5.862;2023-02-28T00:46:36;2.00;;;1.40;;
64789;SDS011;51223;51.816;5.862;2023-02-28T00:49:02;1.35;;;1.20;;
64789;SDS011;51223;51.816;5.862;2023-02-28T00:51:27;1.73;;;1.20;;
64789;SDS011;51223;51.816;5.862;2023-02-28T00:53:53;2.40;;;1.88;;
64789;SDS011;51223;51.816;5.862;2023-02-28T00:56:19;1.73;;;1.17;;
64789;SDS011;51223;51.816;5.862;2023-02-28T00:58:44;1.70;;;1.05;;
64789;SDS011;51223;51.816;5.862;2023-02-28T01:01:10;5.45;;;1.23;;
64789;SDS011;51223;51.816;5.862;2023-02-28T01:03:36;3.38;;;1.38;;
64789;SDS011;51223;51.816;5.862;2023-02-28T01:06:01;2.28;;;1.83;;
64789;SDS011;51223;51.816;5.862;2023-02-28T01:08:27;2.42;;;1.38;;
64789;SDS011;51223;51.816;5.862;2023-02-28T01:10:53;2.67;;;1.60;;
64789;SDS011;51223;51.816;5.862;2023-02-28T01:13:18;1.98;;;1.48;;
64789;SDS011;51223;51.816;5.862;2023-02-28T01:15:54;2.15;;;1.15;;
64789;SDS011;51223;51.816;5.862;2023-02-28T01:18:21;2.58;;;1.65;;
64789;SDS011;51223;51.816;5.862;2023-02-28T01:20:47;2.65;;;1.50;;
64789;SDS011;51223;51.816;5.862;2023-02-28T01:23:12;2.22;;;1.00;;
64789;SDS011;51223;51.816;5.862;2023-02-28T01:25:38;1.30;;;1.02;;
64789;SDS011;51223;51.816;5.862;2023-02-28T01:28:04;2.55;;;1.20;;
64789;SDS011;51223;51.816;5.862;2023-02-28T01:30:31;1.40;;;1.27;;
64789;SDS011;51223;51.816;5.862;2023-02-28T01:32:56;1.40;;;1.30;;
64789;SDS011;51223;51.816;5.862;2023-02-28T01:35:22;2.58;;;1.70;;
64789;SDS011;51223;51.816;5.862;2023-02-28T01:37:47;2.78;;;1.90;;
64789;SDS011;51223;51.816;5.862;2023-02-28T01:40:13;1.73;;;1.60;;
64789;SDS011;51223;51.816;5.862;2023-02-28T01:42:39;6.82;;;1.95;;
64789;SDS011;51223;51.816;5.862;2023-02-28T01:47:49;2.03;;;1.60;;
64789;SDS011;51223;51.816;5.862;2023-02-28T01:50:16;2.60;;;1.55;;
64789;SDS011;51223;51.816;5.862;2023-02-28T01:52:43;2.28;;;1.67;;
64789;SDS011;51223;51.816;5.862;2023-02-28T01:55:09;6.35;;;1.45;;
64789;SDS011;51223;51.816;5.862;2023-02-28T01:57:43;1.88;;;1.60;;
64789;SDS011;51223;51.816;5.862;2023-02-28T02:00:12;4.50;;;2.35;;
64789;SDS011;51223;51.816;5.862;2023-02-28T02:02:40;1.85;;;1.40;;
64789;SDS011;51223;51.816;5.862;2023-02-28T02:05:08;4.60;;;2.25;;
64789;SDS011;51223;51.816;5.862;2023-02-28T02:07:37;4.40;;;1.92;;
64789;SDS011;51223;51.816;5.862;2023-02-28T02:15:00;2.22;;;1.42;;
64789;SDS011;51223;51.816;5.862;2023-02-28T02:17:31;1.65;;;1.38;;
64789;SDS011;51223;51.816;5.862;2023-02-28T02:27:50;2.72;;;1.70;;
64789;SDS011;51223;51.816;5.862;2023-02-28T02:37:57;1.80;;;1.40;;
64789;SDS011;51223;51.816;5.862;2023-02-28T02:40:33;2.50;;;1.50;;
64789;SDS011;51223;51.816;5.862;2023-02-28T02:43:07;7.95;;;1.90;;
64789;SDS011;51223;51.816;5.862;2023-02-28T02:45:45;2.63;;;1.85;;
64789;SDS011;51223;51.816;5.862;2023-02-28T02:48:14;3.67;;;1.45;;
64789;SDS011;51223;51.816;5.862;2023-02-28T02:50:45;1.70;;;1.52;;
64789;SDS011;51223;51.816;5.862;2023-02-28T02:53:12;1.88;;;1.25;;
64789;SDS011;51223;51.816;5.862;2023-02-28T02:55:42;2.85;;;1.50;;
64789;SDS011;51223;51.816;5.862;2023-02-28T02:58:10;2.10;;;1.20;;
64789;SDS011;51223;51.816;5.862;2023-02-28T03:00:41;0.93;;;0.88;;
64789;SDS011;51223;51.816;5.862;2023-02-28T03:03:08;2.30;;;0.95;;
64789;SDS011;51223;51.816;5.862;2023-02-28T03:05:45;1.80;;;1.33;;
64789;SDS011;51223;51.816;5.862;2023-02-28T03:08:11;1.30;;;1.20;;
64789;SDS011;51223;51.816;5.862;2023-02-28T03:10:38;1.27;;;0.95;;
64789;SDS011;51223;51.816;5.862;2023-02-28T03:13:23;2.00;;;1.73;;
64789;SDS011;51223;51.816;5.862;2023-02-28T03:18:40;1.10;;;1.00;;
64789;SDS011;51223;51.816;5.862;2023-02-28T03:21:14;1.70;;;1.40;;
64789;SDS011;51223;51.816;5.862;2023-02-28T03:23:45;2.03;;;1.52;;
64789;SDS011;51223;51.816;5.862;2023-02-28T03:26:19;1.08;;;0.98;;
64789;SDS011;51223;51.816;5.862;2023-02-28T03:31:36;1.33;;;1.02;;
64789;SDS011;51223;51.816;5.862;2023-02-28T03:34:46;2.08;;;1.17;;
64789;SDS011;51223;51.816;5.862;2023-02-28T03:36:53;1.70;;;1.33;;
64789;SDS011;51223;51.816;5.862;2023-02-28T03:39:20;2.53;;;1.50;;
64789;SDS011;51223;51.816;5.862;2023-02-28T03:41:54;4.22;;;1.67;;
64789;SDS011;51223;51.816;5.862;2023-02-28T03:44:28;2.33;;;1.35;;
64789;SDS011;51223;51.816;5.862;2023-02-28T03:47:00;1.55;;;1.27;;
64789;SDS011;51223;51.816;5.862;2023-02-28T03:49:32;1.10;;;0.98;;
64789;SDS011;51223;51.816;5.862;2023-02-28T03:52:00;2.35;;;1.48;;
64789;SDS011;51223;51.816;5.862;2023-02-28T03:54:27;2.70;;;1.45;;
64789;SDS011;51223;51.816;5.862;2023-02-28T03:57:06;2.30;;;1.27;;
64789;SDS011;51223;51.816;5.862;2023-02-28T03:59:37;2.03;;;1.52;;
64789;SDS011;51223;51.816;5.862;2023-02-28T04:02:04;3.15;;;1.63;;
64789;SDS011;51223;51.816;5.862;2023-02-28T04:04:30;5.50;;;1.50;;
64789;SDS011;51223;51.816;5.862;2023-02-28T04:07:06;0.55;;;0.55;;
64789;SDS011;51223;51.816;5.862;2023-02-28T04:09:32;2.17;;;1.77;;
64789;SDS011;51223;51.816;5.862;2023-02-28T04:11:58;3.90;;;1.70;;
64789;SDS011;51223;51.816;5.862;2023-02-28T04:14:23;2.38;;;1.85;;
64789;SDS011;51223;51.816;5.862;2023-02-28T04:16:49;2.13;;;1.73;;
64789;SDS011;51223;51.816;5.862;2023-02-28T04:19:16;4.38;;;2.80;;
64789;SDS011;51223;51.816;5.862;2023-02-28T04:21:45;5.22;;;2.15;;
64789;SDS011;51223;51.816;5.862;2023-02-28T04:24:13;4.80;;;2.58;;
64789;SDS011;51223;51.816;5.862;2023-02-28T04:26:43;3.85;;;1.67;;
64789;SDS011;51223;51.816;5.862;2023-02-28T04:29:09;2.20;;;1.77;;
64789;SDS011;51223;51.816;5.862;2023-02-28T04:31:35;2.92;;;1.52;;
64789;SDS011;51223;51.816;5.862;2023-02-28T04:34:01;1.52;;;1.42;;
64789;SDS011;51223;51.816;5.862;2023-02-28T04:36:27;7.75;;;2.00;;
64789;SDS011;51223;51.816;5.862;2023-02-28T04:38:52;2.53;;;1.48;;
64789;SDS011;51223;51.816;5.862;2023-02-28T04:41:19;3.55;;;2.15;;
64789;SDS011;51223;51.816;5.862;2023-02-28T04:43:45;6.95;;;1.30;;
64789;SDS011;51223;51.816;5.862;2023-02-28T04:46:10;4.50;;;1.52;;
64789;SDS011;51223;51.816;5.862;2023-02-28T04:48:37;2.15;;;1.23;;
64789;SDS011;51223;51.816;5.862;2023-02-28T04:51:09;2.70;;;1.85;;
64789;SDS011;51223;51.816;5.862;2023-02-28T04:53:36;2.60;;;1.70;;
64789;SDS011;51223;51.816;5.862;2023-02-28T04:56:02;2.83;;;1.63;;
64789;SDS011;51223;51.816;5.862;2023-02-28T04:58:28;1.63;;;1.30;;
64789;SDS011;51223;51.816;5.862;2023-02-28T05:01:00;2.25;;;1.77;;
64789;SDS011;51223;51.816;5.862;2023-02-28T05:03:26;2.08;;;1.45;;
64789;SDS011;51223;51.816;5.862;2023-02-28T05:05:52;1.50;;;1.10;;
64789;SDS011;51223;51.816;5.862;2023-02-28T05:08:17;2.80;;;1.70;;
64789;SDS011;51223;51.816;5.862;2023-02-28T05:10:43;2.83;;;1.50;;
64789;SDS011;51223;51.816;5.862;2023-02-28T05:13:11;1.95;;;1.15;;
64789;SDS011;51223;51.816;5.862;2023-02-28T05:15:36;3.33;;;1.58;;
64789;SDS011;51223;51.816;5.862;2023-02-28T05:18:02;2.28;;;1.40;;
64789;SDS011;51223;51.816;5.862;2023-02-28T05:20:28;2.53;;;1.70;;
64789;SDS011;51223;51.816;5.862;2023-02-28T05:22:53;2.38;;;1.60;;
64789;SDS011;51223;51.816;5.862;2023-02-28T05:25:19;1.95;;;1.67;;
64789;SDS011;51223;51.816;5.862;2023-02-28T05:27:46;1.55;;;1.15;;
64789;SDS011;51223;51.816;5.862;2023-02-28T05:30:12;2.08;;;1.33;;
64789;SDS011;51223;51.816;5.862;2023-02-28T05:32:38;2.03;;;1.60;;
64789;SDS011;51223;51.816;5.862;2023-02-28T05:35:04;2.72;;;2.10;;
64789;SDS011;51223;51.816;5.862;2023-02-28T05:37:30;2.38;;;1.40;;
64789;SDS011;51223;51.816;5.862;2023-02-28T05:39:55;1.85;;;1.50;;
64789;SDS011;51223;51.816;5.862;2023-02-28T05:42:21;2.65;;;1.50;;
64789;SDS011;51223;51.816;5.862;2023-02-28T05:44:46;1.65;;;1.17;;
64789;SDS011;51223;51.816;5.862;2023-02-28T05:47:12;27.15;;;2.08;;
64789;SDS011;51223;51.816;5.862;2023-02-28T05:49:41;2.10;;;1.02;;
64789;SDS011;51223;51.816;5.862;2023-02-28T05:52:06;0.73;;;0.73;;
64789;SDS011;51223;51.816;5.862;2023-02-28T05:54:32;2.47;;;1.75;;
64789;SDS011;51223;51.816;5.862;2023-02-28T05:56:57;2.88;;;1.65;;
64789;SDS011;51223;51.816;5.862;2023-02-28T05:59:23;2.17;;;1.40;;
64789;SDS011;51223;51.816;5.862;2023-02-28T06:01:49;2.20;;;1.38;;
64789;SDS011;51223;51.816;5.862;2023-02-28T06:04:15;2.53;;;1.27;;
64789;SDS011;51223;51.816;5.862;2023-02-28T06:06:43;2.30;;;1.60;;
64789;SDS011;51223;51.816;5.862;2023-02-28T06:09:09;2.15;;;1.65;;
64789;SDS011;51223;51.816;5.862;2023-02-28T06:11:34;2.75;;;1.30;;
64789;SDS011;51223;51.816;5.862;2023-02-28T06:14:00;1.77;;;1.35;;
64789;SDS011;51223;51.816;5.862;2023-02-28T06:16:27;1.15;;;1.00;;
64789;SDS011;51223;51.816;5.862;2023-02-28T06:18:53;1.65;;;1.30;;
64789;SDS011;51223;51.816;5.862;2023-02-28T06:21:21;1.33;;;1.10;;
64789;SDS011;51223;51.816;5.862;2023-02-28T06:23:47;2.88;;;1.88;;
64789;SDS011;51223;51.816;5.862;2023-02-28T06:26:12;3.03;;;1.60;;
64789;SDS011;51223;51.816;5.862;2023-02-28T06:28:38;1.30;;;1.20;;
64789;SDS011;51223;51.816;5.862;2023-02-28T06:31:07;1.95;;;1.58;;
64789;SDS011;51223;51.816;5.862;2023-02-28T06:33:33;4.15;;;2.08;;
64789;SDS011;51223;51.816;5.862;2023-02-28T06:35:59;4.45;;;1.98;;
64789;SDS011;51223;51.816;5.862;2023-02-28T06:38:25;1.42;;;1.33;;
64789;SDS011;51223;51.816;5.862;2023-02-28T06:40:54;1.85;;;1.15;;
64789;SDS011;51223;51.816;5.862;2023-02-28T06:43:20;4.25;;;1.45;;
64789;SDS011;51223;51.816;5.862;2023-02-28T06:45:46;2.85;;;1.75;;
64789;SDS011;51223;51.816;5.862;2023-02-28T06:48:12;2.83;;;1.42;;
64789;SDS011;51223;51.816;5.862;2023-02-28T06:50:37;2.47;;;1.38;;
64789;SDS011;51223;51.816;5.862;2023-02-28T06:53:03;2.05;;;1.33;;
64789;SDS011;51223;51.816;5.862;2023-02-28T06:55:29;2.75;;;1.40;;
64789;SDS011;51223;51.816;5.862;2023-02-28T06:57:54;1.27;;;1.15;;
64789;SDS011;51223;51.816;5.862;2023-02-28T07:00:20;4.45;;;1.23;;
64789;SDS011;51223;51.816;5.862;2023-02-28T07:02:45;3.25;;;1.27;;
64789;SDS011;51223;51.816;5.862;2023-02-28T07:05:12;5.15;;;1.60;;
64789;SDS011;51223;51.816;5.862;2023-02-28T07:07:38;2.13;;;1.40;;
64789;SDS011;51223;51.816;5.862;2023-02-28T07:10:06;2.70;;;1.70;;
64789;SDS011;51223;51.816;5.862;2023-02-28T07:12:31;1.48;;;1.08;;
64789;SDS011;51223;51.816;5.862;2023-02-28T07:14:57;2.33;;;1.70;;
64789;SDS011;51223;51.816;5.862;2023-02-28T07:17:23;2.88;;;1.50;;
64789;SDS011;51223;51.816;5.862;2023-02-28T07:19:48;1.08;;;0.80;;
64789;SDS011;51223;51.816;5.862;2023-02-28T07:22:14;1.35;;;1.08;;
64789;SDS011;51223;51.816;5.862;2023-02-28T07:24:39;1.77;;;1.55;;
64789;SDS011;51223;51.816;5.862;2023-02-28T07:27:05;1.60;;;1.35;;
64789;SDS011;51223;51.816;5.862;2023-02-28T07:29:30;3.03;;;1.52;;
64789;SDS011;51223;51.816;5.862;2023-02-28T07:31:56;1.52;;;1.15;;
64789;SDS011;51223;51.816;5.862;2023-02-28T07:34:22;0.77;;;0.77;;
64789;SDS011;51223;51.816;5.862;2023-02-28T07:36:47;3.65;;;1.83;;
64789;SDS011;51223;51.816;5.862;2023-02-28T07:39:13;1.40;;;1.30;;
64789;SDS011;51223;51.816;5.862;2023-02-28T07:41:39;8.77;;;1.30;;
64789;SDS011;51223;51.816;5.862;2023-02-28T07:44:09;1.27;;;1.17;;
64789;SDS011;51223;51.816;5.862;2023-02-28T07:46:35;1.40;;;1.08;;
64789;SDS011;51223;51.816;5.862;2023-02-28T07:49:01;1.75;;;1.20;;
64789;SDS011;51223;51.816;5.862;2023-02-28T07:51:28;5.43;;;1.70;;
64789;SDS011;51223;51.816;5.862;2023-02-28T07:53:54;1.65;;;1.00;;
64789;SDS011;51223;51.816;5.862;2023-02-28T07:56:19;0.85;;;0.70;;
64789;SDS011;51223;51.816;5.862;2023-02-28T07:58:45;0.93;;;0.80;;
64789;SDS011;51223;51.816;5.862;2023-02-28T08:01:11;1.88;;;1.25;;
64789;SDS011;51223;51.816;5.862;2023-02-28T08:03:37;1.00;;;0.90;;
64789;SDS011;51223;51.816;5.862;2023-02-28T08:06:03;0.20;;;0.20;;
64789;SDS011;51223;51.816;5.862;2023-02-28T08:08:29;1.73;;;0.82;;
64789;SDS011;51223;51.816;5.862;2023-02-28T08:11:00;0.45;;;0.45;;
64789;SDS011;51223;51.816;5.862;2023-02-28T08:13:26;0.65;;;0.65;;
64789;SDS011;51223;51.816;5.862;2023-02-28T08:15:53;1.67;;;0.70;;
64789;SDS011;51223;51.816;5.862;2023-02-28T08:18:19;0.60;;;0.60;;
64789;SDS011;51223;51.816;5.862;2023-02-28T08:20:44;0.20;;;0.20;;
64789;SDS011;51223;51.816;5.862;2023-02-28T08:23:10;0.63;;;0.63;;
64789;SDS011;51223;51.816;5.862;2023-02-28T08:25:36;2.97;;;0.65;;
64789;SDS011;51223;51.816;5.862;2023-02-28T08:28:01;1.10;;;0.95;;
64789;SDS011;51223;51.816;5.862;2023-02-28T08:30:27;1.52;;;0.38;;
64789;SDS011;51223;51.816;5.862;2023-02-28T08:32:52;0.45;;;0.43;;
64789;SDS011;51223;51.816;5.862;2023-02-28T08:35:18;0.75;;;0.50;;
64789;SDS011;51223;51.816;5.862;2023-02-28T08:37:43;0.57;;;0.43;;
64789;SDS011;51223;51.816;5.862;2023-02-28T08:40:09;0.50;;;0.50;;
64789;SDS011;51223;51.816;5.862;2023-02-28T08:42:35;0.22;;;0.22;;
64789;SDS011;51223;51.816;5.862;2023-02-28T08:45:01;0.90;;;0.52;;
64789;SDS011;51223;51.816;5.862;2023-02-28T08:47:26;0.40;;;0.40;;
64789;SDS011;51223;51.816;5.862;2023-02-28T08:49:52;0.65;;;0.60;;
64789;SDS011;51223;51.816;5.862;2023-02-28T08:52:17;1.40;;;0.90;;
64789;SDS011;51223;51.816;5.862;2023-02-28T08:54:43;0.80;;;0.70;;
64789;SDS011;51223;51.816;5.862;2023-02-28T08:57:08;0.75;;;0.57;;
64789;SDS011;51223;51.816;5.862;2023-02-28T08:59:34;0.20;;;0.20;;
64789;SDS011;51223;51.816;5.862;2023-02-28T09:01:59;0.65;;;0.55;;
64789;SDS011;51223;51.816;5.862;2023-02-28T09:04:25;0.10;;;0.10;;
64789;SDS011;51223;51.816;5.862;2023-02-28T09:06:51;0.95;;;0.68;;
64789;SDS011;51223;51.816;5.862;2023-02-28T09:09:16;0.68;;;0.43;;
64789;SDS011;51223;51.816;5.862;2023-02-28T09:11:42;0.95;;;0.90;;
64789;SDS011;51223;51.816;5.862;2023-02-28T09:14:07;0.15;;;0.15;;
64789;SDS011;51223;51.816;5.862;2023-02-28T09:16:33;0.40;;;0.40;;
64789;SDS011;51223;51.816;5.862;2023-02-28T09:18:59;0.28;;;0.28;;
64789;SDS011;51223;51.816;5.862;2023-02-28T09:21:25;1.75;;;1.23;;
64789;SDS011;51223;51.816;5.862;2023-02-28T09:23:50;0.63;;;0.63;;
64789;SDS011;51223;51.816;5.862;2023-02-28T09:26:18;0.38;;;0.25;;
64789;SDS011;51223;51.816;5.862;2023-02-28T09:28:44;0.32;;;0.32;;
64789;SDS011;51223;51.816;5.862;2023-02-28T09:31:11;0.95;;;0.90;;
64789;SDS011;51223;51.816;5.862;2023-02-28T09:33:37;0.52;;;0.52;;
64789;SDS011;51223;51.816;5.862;2023-02-28T09:36:03;0.32;;;0.30;;
64789;SDS011;51223;51.816;5.862;2023-02-28T09:38:29;2.92;;;0.82;;
64789;SDS011;51223;51.816;5.862;2023-02-28T09:40:56;0.52;;;0.43;;
64789;SDS011;51223;51.816;5.862;2023-02-28T09:43:22;1.35;;;1.00;;
64789;SDS011;51223;51.816;5.862;2023-02-28T09:45:52;0.30;;;0.30;;
64789;SDS011;51223;51.816;5.862;2023-02-28T09:48:25;0.08;;;0.08;;
64789;SDS011;51223;51.816;5.862;2023-02-28T09:50:55;0.95;;;0.70;;
64789;SDS011;51223;51.816;5.862;2023-02-28T09:53:34;0.55;;;0.30;;
64789;SDS011;51223;51.816;5.862;2023-02-28T09:56:09;0.47;;;0.47;;
64789;SDS011;51223;51.816;5.862;2023-02-28T10:04:33;0.87;;;0.73;;
64789;SDS011;51223;51.816;5.862;2023-02-28T10:06:34;0.63;;;0.57;;
64789;SDS011;51223;51.816;5.862;2023-02-28T10:09:10;0.57;;;0.30;;
64789;SDS011;51223;51.816;5.862;2023-02-28T10:11:38;0.80;;;0.80;;
64789;SDS011;51223;51.816;5.862;2023-02-28T10:14:06;0.00;;;0.00;;
64789;SDS011;51223;51.816;5.862;2023-02-28T10:19:13;0.30;;;0.30;;
64789;SDS011;51223;51.816;5.862;2023-02-28T10:21:45;0.43;;;0.40;;
64789;SDS011;51223;51.816;5.862;2023-02-28T10:24:19;1.85;;;0.60;;
64789;SDS011;51223;51.816;5.862;2023-02-28T10:26:45;0.32;;;0.32;;
64789;SDS011;51223;51.816;5.862;2023-02-28T10:29:12;0.30;;;0.30;;
64789;SDS011;51223;51.816;5.862;2023-02-28T10:31:38;0.20;;;0.20;;
64789;SDS011;51223;51.816;5.862;2023-02-28T10:34:04;0.20;;;0.20;;
64789;SDS011;51223;51.816;5.862;2023-02-28T10:36:31;0.65;;;0.65;;
64789;SDS011;51223;51.816;5.862;2023-02-28T10:38:57;0.70;;;0.50;;
64789;SDS011;51223;51.816;5.862;2023-02-28T10:43:54;1.55;;;1.30;;
64789;SDS011;51223;51.816;5.862;2023-02-28T10:46:37;0.20;;;0.20;;
64789;SDS011;51223;51.816;5.862;2023-02-28T10:49:05;0.57;;;0.38;;
64789;SDS011;51223;51.816;5.862;2023-02-28T10:51:35;0.30;;;0.30;;
64789;SDS011;51223;51.816;5.862;2023-02-28T10:54:01;0.50;;;0.40;;
64789;SDS011;51223;51.816;5.862;2023-02-28T10:56:28;0.30;;;0.28;;
64789;SDS011;51223;51.816;5.862;2023-02-28T11:01:23;3.00;;;0.52;;
64789;SDS011;51223;51.816;5.862;2023-02-28T11:03:53;0.13;;;0.13;;
64789;SDS011;51223;51.816;5.862;2023-02-28T11:06:19;0.40;;;0.40;;
64789;SDS011;51223;51.816;5.862;2023-02-28T11:08:47;0.10;;;0.10;;
64789;SDS011;51223;51.816;5.862;2023-02-28T11:11:13;0.25;;;0.25;;
64789;SDS011;51223;51.816;5.862;2023-02-28T11:13:39;0.65;;;0.47;;
64789;SDS011;51223;51.816;5.862;2023-02-28T11:16:06;0.88;;;0.80;;
64789;SDS011;51223;51.816;5.862;2023-02-28T11:20:58;0.88;;;0.65;;
64789;SDS011;51223;51.816;5.862;2023-02-28T11:23:25;0.82;;;0.73;;
64789;SDS011;51223;51.816;5.862;2023-02-28T11:25:52;0.63;;;0.52;;
64789;SDS011;51223;51.816;5.862;2023-02-28T11:35:55;0.65;;;0.55;;
64789;SDS011;51223;51.816;5.862;2023-02-28T11:38:24;0.32;;;0.32;;
64789;SDS011;51223;51.816;5.862;2023-02-28T11:41:01;0.68;;;0.55;;
64789;SDS011;51223;51.816;5.862;2023-02-28T11:43:33;0.15;;;0.10;;
64789;SDS011;51223;51.816;5.862;2023-02-28T11:51:21;0.85;;;0.75;;
64789;SDS011;51223;51.816;5.862;2023-02-28T11:59:01;0.22;;;0.22;;
64789;SDS011;51223;51.816;5.862;2023-02-28T12:04:11;0.98;;;0.73;;
64789;SDS011;51223;51.816;5.862;2023-02-28T12:06:42;0.55;;;0.43;;
64789;SDS011;51223;51.816;5.862;2023-02-28T12:11:55;0.63;;;0.63;;
64789;SDS011;51223;51.816;5.862;2023-02-28T12:17:04;0.75;;;0.68;;
64789;SDS011;51223;51.816;5.862;2023-02-28T12:22:31;0.63;;;0.63;;
64789;SDS011;51223;51.816;5.862;2023-02-28T12:27:26;1.17;;;0.80;;
64789;SDS011;51223;51.816;5.862;2023-02-28T12:32:30;0.70;;;0.60;;
64789;SDS011;51223;51.816;5.862;2023-02-28T12:34:58;0.80;;;0.50;;
64789;SDS011;51223;51.816;5.862;2023-02-28T12:37:31;0.85;;;0.60;;
64789;SDS011;51223;51.816;5.862;2023-02-28T12:40:02;0.75;;;0.50;;
64789;SDS011;51223;51.816;5.862;2023-02-28T12:42:42;2.10;;;1.05;;
64789;SDS011;51223;51.816;5.862;2023-02-28T12:45:10;0.85;;;0.85;;
64789;SDS011;51223;51.816;5.862;2023-02-28T12:47:37;0.70;;;0.68;;
64789;SDS011;51223;51.816;5.862;2023-02-28T12:50:05;2.85;;;1.83;;
64789;SDS011;51223;51.816;5.862;2023-02-28T12:52:35;0.50;;;0.50;;
64789;SDS011;51223;51.816;5.862;2023-02-28T12:57:49;1.07;;;0.80;;
64789;SDS011;51223;51.816;5.862;2023-02-28T13:00:18;0.82;;;0.82;;
64789;SDS011;51223;51.816;5.862;2023-02-28T13:05:39;1.13;;;0.97;;
64789;SDS011;51223;51.816;5.862;2023-02-28T13:08:31;0.80;;;0.80;;
64789;SDS011;51223;51.816;5.862;2023-02-28T13:11:01;1.02;;;0.93;;
64789;SDS011;51223;51.816;5.862;2023-02-28T13:13:28;1.60;;;0.93;;
64789;SDS011;51223;51.816;5.862;2023-02-28T13:16:02;0.77;;;0.77;;
64789;SDS011;51223;51.816;5.862;2023-02-28T13:18:32;1.08;;;0.75;;
64789;SDS011;51223;51.816;5.862;2023-02-28T13:20:58;2.03;;;0.77;;
64789;SDS011;51223;51.816;5.862;2023-02-28T13:26:03;0.50;;;0.25;;
64789;SDS011;51223;51.816;5.862;2023-02-28T13:31:12;1.10;;;0.80;;
64789;SDS011;51223;51.816;5.862;2023-02-28T13:44:04;2.67;;;1.05;;
64789;SDS011;51223;51.816;5.862;2023-02-28T13:46:30;2.17;;;0.75;;
64789;SDS011;51223;51.816;5.862;2023-02-28T13:48:57;1.17;;;0.75;;
64789;SDS011;51223;51.816;5.862;2023-02-28T13:51:43;0.20;;;0.20;;
64789;SDS011;51223;51.816;5.862;2023-02-28T13:59:18;0.47;;;0.43;;
64789;SDS011;51223;51.816;5.862;2023-02-28T14:06:56;2.13;;;1.13;;
64789;SDS011;51223;51.816;5.862;2023-02-28T14:09:26;1.35;;;0.80;;
64789;SDS011;51223;51.816;5.862;2023-02-28T14:11:53;1.75;;;0.65;;
64789;SDS011;51223;51.816;5.862;2023-02-28T14:16:56;1.02;;;0.65;;
64789;SDS011;51223;51.816;5.862;2023-02-28T14:19:24;0.45;;;0.45;;
64789;SDS011;51223;51.816;5.862;2023-02-28T14:22:05;2.17;;;0.88;;
64789;SDS011;51223;51.816;5.862;2023-02-28T14:24:42;0.70;;;0.70;;
64789;SDS011;51223;51.816;5.862;2023-02-28T14:37:37;0.95;;;0.77;;
64789;SDS011;51223;51.816;5.862;2023-02-28T14:40:04;0.22;;;0.22;;
64789;SDS011;51223;51.816;5.862;2023-02-28T14:42:37;0.55;;;0.55;;
64789;SDS011;51223;51.816;5.862;2023-02-28T14:45:21;0.88;;;0.77;;
64789;SDS011;51223;51.816;5.862;2023-02-28T14:47:48;0.80;;;0.35;;
64789;SDS011;51223;51.816;5.862;2023-02-28T14:50:21;0.77;;;0.65;;
64789;SDS011;51223;51.816;5.862;2023-02-28T14:52:47;1.20;;;1.10;;
64789;SDS011;51223;51.816;5.862;2023-02-28T14:55:15;1.77;;;0.95;;
64789;SDS011;51223;51.816;5.862;2023-02-28T14:57:50;0.50;;;0.50;;
64789;SDS011;51223;51.816;5.862;2023-02-28T15:00:20;2.70;;;0.65;;
64789;SDS011;51223;51.816;5.862;2023-02-28T15:02:46;0.20;;;0.20;;
64789;SDS011;51223;51.816;5.862;2023-02-28T15:07:37;0.38;;;0.38;;
64789;SDS011;51223;51.816;5.862;2023-02-28T15:10:19;1.38;;;1.05;;
64789;SDS011;51223;51.816;5.862;2023-02-28T15:12:55;0.60;;;0.50;;
64789;SDS011;51223;51.816;5.862;2023-02-28T15:15:22;0.77;;;0.70;;
64789;SDS011;51223;51.816;5.862;2023-02-28T15:17:50;8.07;;;1.02;;
64789;SDS011;51223;51.816;5.862;2023-02-28T15:20:17;0.32;;;0.32;;
64789;SDS011;51223;51.816;5.862;2023-02-28T15:22:43;1.33;;;0.60;;
64789;SDS011;51223;51.816;5.862;2023-02-28T15:25:10;1.02;;;0.80;;
64789;SDS011;51223;51.816;5.862;2023-02-28T15:27:41;1.52;;;0.93;;
64789;SDS011;51223;51.816;5.862;2023-02-28T15:30:12;2.15;;;1.23;;
64789;SDS011;51223;51.816;5.862;2023-02-28T15:32:39;2.50;;;1.17;;
64789;SDS011;51223;51.816;5.862;2023-02-28T15:35:18;0.85;;;0.60;;
64789;SDS011;51223;51.816;5.862;2023-02-28T15:37:48;0.63;;;0.63;;
64789;SDS011;51223;51.816;5.862;2023-02-28T15:40:26;0.57;;;0.40;;
64789;SDS011;51223;51.816;5.862;2023-02-28T15:43:26;0.65;;;0.60;;
64789;SDS011;51223;51.816;5.862;2023-02-28T15:45:47;1.08;;;0.50;;
64789;SDS011;51223;51.816;5.862;2023-02-28T15:48:20;0.73;;;0.65;;
64789;SDS011;51223;51.816;5.862;2023-02-28T15:50:48;0.60;;;0.60;;
64789;SDS011;51223;51.816;5.862;2023-02-28T15:53:15;0.77;;;0.65;;
64789;SDS011;51223;51.816;5.862;2023-02-28T15:55:41;2.15;;;1.05;;
64789;SDS011;51223;51.816;5.862;2023-02-28T15:58:08;2.95;;;1.17;;
64789;SDS011;51223;51.816;5.862;2023-02-28T16:00:37;1.70;;;1.20;;
64789;SDS011;51223;51.816;5.862;2023-02-28T16:03:22;0.70;;;0.60;;
64789;SDS011;51223;51.816;5.862;2023-02-28T16:05:50;0.52;;;0.52;;
64789;SDS011;51223;51.816;5.862;2023-02-28T16:08:31;0.77;;;0.77;;
64789;SDS011;51223;51.816;5.862;2023-02-28T16:10:56;7.03;;;0.80;;
64789;SDS011;51223;51.816;5.862;2023-02-28T16:13:22;1.42;;;0.90;;
64789;SDS011;51223;51.816;5.862;2023-02-28T16:15:47;2.58;;;1.27;;
64789;SDS011;51223;51.816;5.862;2023-02-28T16:18:15;2.22;;;1.30;;
64789;SDS011;51223;51.816;5.862;2023-02-28T16:20:41;1.95;;;1.00;;
64789;SDS011;51223;51.816;5.862;2023-02-28T16:23:06;1.58;;;1.35;;
64789;SDS011;51223;51.816;5.862;2023-02-28T16:25:34;1.95;;;1.45;;
64789;SDS011;51223;51.816;5.862;2023-02-28T16:28:00;3.58;;;1.65;;
64789;SDS011;51223;51.816;5.862;2023-02-28T16:30:26;1.35;;;1.15;;
64789;SDS011;51223;51.816;5.862;2023-02-28T16:32:53;2.40;;;1.35;;
64789;SDS011;51223;51.816;5.862;2023-02-28T16:35:20;1.35;;;1.10;;
64789;SDS011;51223;51.816;5.862;2023-02-28T16:37:45;2.85;;;1.17;;
64789;SDS011;51223;51.816;5.862;2023-02-28T16:40:15;5.35;;;1.70;;
64789;SDS011;51223;51.816;5.862;2023-02-28T16:42:41;3.63;;;1.70;;
64789;SDS011;51223;51.816;5.862;2023-02-28T16:45:13;2.15;;;1.50;;
64789;SDS011;51223;51.816;5.862;2023-02-28T16:47:40;2.45;;;1.25;;
64789;SDS011;51223;51.816;5.862;2023-02-28T16:50:12;5.20;;;1.65;;
64789;SDS011;51223;51.816;5.862;2023-02-28T16:52:38;3.17;;;1.40;;
64789;SDS011;51223;51.816;5.862;2023-02-28T16:55:03;3.33;;;1.50;;
64789;SDS011;51223;51.816;5.862;2023-02-28T16:57:29;2.78;;;1.17;;